Map

Track Data

SID SEASON NUMBER BASIN SUBBASIN NAME ISO_TIME NATURE LAT LON WMO_WIND WMO_PRES WMO_AGENCY TRACK_TYPE DIST2LAND LANDFALL IFLAG USA_AGENCY USA_ATCF_ID USA_LAT USA_LON USA_RECORD USA_STATUS USA_WIND USA_PRES USA_SSHS USA_R34_NE USA_R34_SE USA_R34_SW USA_R34_NW USA_R50_NE USA_R50_SE USA_R50_SW USA_R50_NW USA_R64_NE USA_R64_SE USA_R64_SW USA_R64_NW USA_POCI USA_ROCI USA_RMW USA_EYE TOKYO_LAT TOKYO_LON TOKYO_GRADE TOKYO_WIND TOKYO_PRES TOKYO_R50_DIR TOKYO_R50_LONG TOKYO_R50_SHORT TOKYO_R30_DIR TOKYO_R30_LONG TOKYO_R30_SHORT TOKYO_LAND CMA_LAT CMA_LON CMA_CAT CMA_WIND CMA_PRES HKO_LAT HKO_LON HKO_CAT HKO_WIND HKO_PRES NEWDELHI_LAT NEWDELHI_LON NEWDELHI_GRADE NEWDELHI_WIND NEWDELHI_PRES NEWDELHI_CI NEWDELHI_DP NEWDELHI_POCI REUNION_LAT REUNION_LON REUNION_TYPE REUNION_WIND REUNION_PRES REUNION_TNUM REUNION_CI REUNION_RMW REUNION_R34_NE REUNION_R34_SE REUNION_R34_SW REUNION_R34_NW REUNION_R50_NE REUNION_R50_SE REUNION_R50_SW REUNION_R50_NW REUNION_R64_NE REUNION_R64_SE REUNION_R64_SW REUNION_R64_NW BOM_LAT BOM_LON BOM_TYPE BOM_WIND BOM_PRES BOM_TNUM BOM_CI BOM_RMW BOM_R34_NE BOM_R34_SE BOM_R34_SW BOM_R34_NW BOM_R50_NE BOM_R50_SE BOM_R50_SW BOM_R50_NW BOM_R64_NE BOM_R64_SE BOM_R64_SW BOM_R64_NW BOM_ROCI BOM_POCI BOM_EYE BOM_POS_METHOD BOM_PRES_METHOD NADI_LAT NADI_LON NADI_CAT NADI_WIND NADI_PRES WELLINGTON_LAT WELLINGTON_LON WELLINGTON_WIND WELLINGTON_PRES DS824_LAT DS824_LON DS824_STAGE DS824_WIND DS824_PRES TD9636_LAT TD9636_LON TD9636_STAGE TD9636_WIND TD9636_PRES TD9635_LAT TD9635_LON TD9635_WIND TD9635_PRES TD9635_ROCI NEUMANN_LAT NEUMANN_LON NEUMANN_CLASS NEUMANN_WIND NEUMANN_PRES MLC_LAT MLC_LON MLC_CLASS MLC_WIND MLC_PRES USA_GUST BOM_GUST BOM_GUST_PER REUNION_GUST REUNION_GUST_PER USA_SEAHGT USA_SEARAD_NE USA_SEARAD_SE USA_SEARAD_SW USA_SEARAD_NW STORM_SPEED STORM_DIR
1901318N16084 1901 46 NI BB NOT_NAMED 1901-11-14 00:00:00 TS 15.7000 84.3000 main 236 223 _________O____ -1 15.7000 84.3000 TC 45 4 18
1901318N16084 1901 46 NI BB NOT_NAMED 1901-11-14 03:00:00 TS 15.9067 84.3666 main 229 209 _________PO___ -1 16.0100 84.3999 TC 45 15.7000 84.3000 3 5 18
1901318N16084 1901 46 NI BB NOT_NAMED 1901-11-14 06:00:00 TS 16.1744 84.4574 main 209 192 _________OP___ -1 16.3000 84.5000 TC 45 15.9860 84.3936 3 6 19
1901318N16084 1901 46 NI BB NOT_NAMED 1901-11-14 09:00:00 TS 16.4332 84.5528 main 200 177 _________PP___ -1 16.5575 84.6000 TC 45 16.2675 84.4898 3 5 20
1901318N16084 1901 46 NI BB NOT_NAMED 1901-11-14 12:00:00 TS 16.6702 84.6456 main 177 168 _________OP___ -1 16.8000 84.7000 TC 45 16.5403 84.5911 3 5 21
1901318N16084 1901 46 NI BB NOT_NAMED 1901-11-14 15:00:00 TS 16.9287 84.7463 main 168 149 _________PO___ -1 17.0575 84.7925 TC 45 16.8000 84.7000 3 5 22
1901318N16084 1901 46 NI BB NOT_NAMED 1901-11-14 18:00:00 TS 17.1717 84.8589 main 149 138 _________OP___ -1 17.3000 84.9000 TC 45 17.0434 84.8179 3 5 27
1901318N16084 1901 46 NI BB NOT_NAMED 1901-11-14 21:00:00 TS 17.3900 84.9963 main 138 130 _________PP___ -1 17.5075 85.0500 TC 45 17.2725 84.9426 3 5 32
1901318N16084 1901 46 NI BB NOT_NAMED 1901-11-15 00:00:00 TS 17.5951 85.1355 main 131 123 _________OP___ -1 17.7000 85.2000 TC 45 17.4903 85.0710 3 5 30
1901318N16084 1901 46 NI BB NOT_NAMED 1901-11-15 03:00:00 TS 17.8000 85.2500 main 130 115 _________PO___ -1 17.9000 85.3001 TC 45 17.7000 85.2000 3 5 27
1901318N16084 1901 46 NI BB NOT_NAMED 1901-11-15 06:00:00 TS 18.0076 85.3605 main 123 115 _________OP___ -1 18.1000 85.4000 TC 45 17.9153 85.3210 3 5 29
1901318N16084 1901 46 NI BB NOT_NAMED 1901-11-15 09:00:00 TS 18.2150 85.4926 main 116 110 _________PP___ -1 18.3075 85.5425 TC 45 18.1224 85.4426 3 5 33
1901318N16084 1901 46 NI BB NOT_NAMED 1901-11-15 12:00:00 TS 18.4092 85.6339 main 114 114 _________OP___ -1 18.5000 85.7000 TC 45 18.3184 85.5679 3 5 37
1901318N16084 1901 46 NI BB NOT_NAMED 1901-11-15 15:00:00 TS 18.5787 85.7750 main 118 109 _________PO___ -1 18.6575 85.8500 TC 45 18.5000 85.7000 3 4 39
1901318N16084 1901 46 NI BB NOT_NAMED 1901-11-15 18:00:00 TS 18.7239 85.9034 main 113 100 _________OP___ -1 18.8000 86.0000 TC 45 18.6478 85.8068 3 4 40
1901318N16084 1901 46 NI BB NOT_NAMED 1901-11-15 21:00:00 TS 18.8597 86.0230 main 100 94 _________PP___ -1 18.9349 86.1202 TC 45 18.7845 85.9259 3 4 43
1901318N16084 1901 46 NI BB NOT_NAMED 1901-11-16 00:00:00 TS 19.0145 86.1910 main 98 84 _________OP___ -1 19.1000 86.3000 TC 45 18.9289 86.0820 3 5 49
1901318N16084 1901 46 NI BB NOT_NAMED 1901-11-16 03:00:00 TS 19.2175 86.4562 main 88 69 _________PO___ -1 19.3350 86.6125 TC 45 19.1000 86.3000 3 7 52
1901318N16084 1901 46 NI BB NOT_NAMED 1901-11-16 06:00:00 TS 19.4668 86.8029 main 69 68 _________OP___ -1 19.6000 87.0000 TC 45 19.3336 86.6058 3 9 53
1901318N16084 1901 46 NI BB NOT_NAMED 1901-11-16 09:00:00 TS 19.7251 87.1835 main 85 76 _________PP___ -1 19.8575 87.3925 TC 45 19.5928 86.9744 3 9 55
1901318N16084 1901 46 NI BB NOT_NAMED 1901-11-16 12:00:00 TS 19.9777 87.5904 main 99 99 _________OP___ -1 20.1000 87.8000 TC 45 19.8554 87.3809 3 9 58
1901318N16084 1901 46 NI BB NOT_NAMED 1901-11-16 15:00:00 TS 20.2075 88.0001 main 118 118 _________PO___ -1 20.3149 88.2001 TC 45 20.1000 87.8000 3 9 61
1901318N16084 1901 46 NI BB NOT_NAMED 1901-11-16 18:00:00 TS 20.3900 88.3928 main 134 123 _________OP___ -1 20.5000 88.6000 TC 45 20.2800 88.1856 3 8 66
1901318N16084 1901 46 NI BB NOT_NAMED 1901-11-16 21:00:00 TS 20.5422 88.7858 main 123 100 _________PP___ -1 20.6424 88.9928 TC 45 20.4420 88.5788 3 8 67
1901318N16084 1901 46 NI BB NOT_NAMED 1901-11-17 00:00:00 TS 20.7040 89.1913 main 101 88 _________OP___ -1 20.8000 89.4000 TC 45 20.6081 88.9826 3 9 65
1901318N16084 1901 46 NI BB NOT_NAMED 1901-11-17 03:00:00 TS 20.9137 89.6213 main 91 67 _________PO___ -1 21.0274 89.8426 TC 45 20.8000 89.4000 3 9 60
1901318N16084 1901 46 NI BB NOT_NAMED 1901-11-17 06:00:00 TS 21.1710 90.0699 main 67 49 _________OP___ -1 21.3000 90.3000 TC 45 21.0421 89.8397 3 10 57
1901318N16084 1901 46 NI BB NOT_NAMED 1901-11-17 09:00:00 TS 21.4524 90.5214 main 45 39 _________PP___ -1 21.5924 90.7501 TC 45 21.3124 90.2926 3 10 55
1901318N16084 1901 46 NI BB NOT_NAMED 1901-11-17 12:00:00 TS 21.7507 90.9746 main 45 45 _________OP___ -1 21.9000 91.2000 TC 45 21.6015 90.7492 3 10 55
1901318N16084 1901 46 NI BB NOT_NAMED 1901-11-17 15:00:00 TS 22.0500 91.4288 main 46 0 _________PO___ -1 22.1999 91.6576 TC 41 21.9000 91.2000 3 10 54
1901318N16084 1901 46 NI BB NOT_NAMED 1901-11-17 18:00:00 TS 22.3287 91.8357 main 0 0 _________OP___ -1 22.5000 92.1000 TC 37 22.2003 91.6375 3 9 53
1901318N16084 1901 46 NI BB NOT_NAMED 1901-11-17 21:00:00 TS 22.6204 92.2422 main 0 0 _________PP___ -1 22.8001 92.5097 TC 33 22.5006 92.0638 3 9 52
1901318N16084 1901 46 NI BB NOT_NAMED 1901-11-18 00:00:00 TS 22.9004 92.6221 main 0 0 _________OP___ -1 23.1000 92.9000 TC 30 22.8007 92.4832 3 8 52
1901318N16084 1901 46 NI BB NOT_NAMED 1901-11-18 03:00:00 NR 23.1000 92.9000 main 0 __________O___ -1 TC 23.1000 92.9000 1 7 52

About IBTrACS Database

This database is a web-friendly format of International Best Track Archive for Climate Stewardship (IBTrACS), a global best track data archive curated by NOAA dating back to 1842.

Updated: 2021-12-03